createdAt,value
2022-09-01T00:00:30.282Z,9.17
2022-09-01T00:02:58.695Z,10.23
2022-09-01T00:05:27.315Z,8.52
2022-09-01T00:07:55.507Z,7.93
2022-09-01T00:10:23.587Z,10.82
2022-09-01T00:12:51.765Z,8.60
2022-09-01T00:15:19.862Z,7.70
2022-09-01T00:17:48.477Z,7.97
2022-09-01T00:20:20.229Z,7.55
2022-09-01T00:22:49.072Z,6.90
2022-09-01T00:25:20.707Z,8.30
2022-09-01T00:27:50.148Z,8.27
2022-09-01T00:30:19.662Z,7.95
2022-09-01T00:32:48.083Z,7.13
2022-09-01T00:35:19.007Z,7.43
2022-09-01T00:37:47.238Z,8.53
2022-09-01T00:40:17.735Z,7.05
2022-09-01T00:42:46.313Z,8.95
2022-09-01T00:45:14.254Z,5.97
2022-09-01T00:47:43.449Z,8.35
2022-09-01T00:50:15.517Z,6.50
2022-09-01T00:52:51.660Z,9.93
2022-09-01T00:55:25.827Z,8.32
2022-09-01T00:57:54.136Z,7.55
2022-09-01T01:00:30.162Z,7.90
2022-09-01T01:02:58.814Z,7.93
2022-09-01T01:05:36.904Z,9.43
2022-09-01T01:08:05.450Z,8.10
2022-09-01T01:10:36.960Z,8.30
2022-09-01T01:13:14.686Z,7.65
2022-09-01T01:15:46.690Z,6.27
2022-09-01T01:18:23.000Z,7.40
2022-09-01T01:21:42.461Z,7.68
2022-09-01T01:24:22.473Z,6.47
2022-09-01T01:26:51.314Z,7.90
2022-09-01T01:29:20.566Z,8.63
2022-09-01T01:31:52.572Z,8.70
2022-09-01T01:34:23.085Z,9.20
2022-09-01T01:36:52.313Z,7.85
2022-09-01T01:39:25.809Z,7.70
2022-09-01T01:41:59.132Z,7.47
2022-09-01T01:44:31.667Z,7.50
2022-09-01T01:47:04.789Z,7.65
2022-09-01T01:49:33.937Z,9.85
2022-09-01T01:52:02.393Z,7.13
2022-09-01T01:54:33.073Z,10.17
2022-09-01T01:57:05.213Z,9.40
2022-09-01T01:59:34.662Z,8.07
2022-09-01T02:02:05.295Z,6.95
2022-09-01T02:04:34.692Z,8.82
2022-09-01T02:07:13.624Z,8.73
2022-09-01T02:09:49.443Z,8.63
2022-09-01T02:12:25.840Z,8.80
2022-09-01T02:14:56.245Z,7.25
2022-09-01T02:17:32.116Z,8.65
2022-09-01T02:20:01.196Z,9.40
2022-09-01T02:22:29.288Z,9.68
2022-09-01T02:24:58.162Z,7.38
2022-09-01T02:27:28.592Z,6.72
2022-09-01T02:29:59.746Z,8.60
2022-09-01T02:32:28.058Z,9.70
2022-09-01T02:35:01.609Z,6.82
2022-09-01T02:37:30.652Z,11.05
2022-09-01T02:39:59.954Z,6.50
2022-09-01T02:42:27.987Z,7.45
2022-09-01T02:44:59.366Z,7.53
2022-09-01T02:47:32.445Z,7.53
2022-09-01T02:50:04.355Z,7.25
2022-09-01T02:52:38.049Z,8.57
2022-09-01T02:55:08.221Z,8.40
2022-09-01T02:57:36.550Z,8.50
2022-09-01T03:00:21.275Z,8.13
2022-09-01T03:02:53.731Z,9.50
2022-09-01T03:05:27.626Z,7.97
2022-09-01T03:07:58.921Z,7.97
2022-09-01T03:10:43.221Z,10.27
2022-09-01T03:13:18.412Z,8.40
2022-09-01T03:15:46.915Z,8.60
2022-09-01T03:18:15.948Z,7.55
2022-09-01T03:20:46.952Z,8.57
2022-09-01T03:23:18.317Z,9.90
2022-09-01T03:25:49.619Z,8.82
2022-09-01T03:28:18.207Z,8.40
2022-09-01T03:30:54.032Z,7.03
2022-09-01T03:33:24.346Z,8.23
2022-09-01T03:35:54.133Z,7.93
2022-09-01T03:38:25.307Z,7.22
2022-09-01T03:41:01.381Z,8.57
2022-09-01T03:43:36.087Z,9.68
2022-09-01T03:46:05.657Z,9.35
2022-09-01T03:48:34.130Z,7.03
2022-09-01T03:51:03.599Z,8.13
2022-09-01T03:53:38.207Z,6.55
2022-09-01T03:56:07.811Z,10.27
2022-09-01T03:58:36.357Z,8.68
2022-09-01T04:01:05.671Z,8.47
2022-09-01T04:03:40.800Z,8.75
2022-09-01T04:06:11.144Z,9.07
2022-09-01T04:08:40.006Z,7.72
2022-09-01T04:11:18.231Z,7.22
2022-09-01T04:13:49.252Z,9.30
2022-09-01T04:16:44.787Z,7.97
2022-09-01T04:19:21.297Z,10.07
2022-09-01T04:21:52.112Z,13.80
2022-09-01T04:24:21.137Z,13.60
2022-09-01T04:26:49.974Z,14.93
2022-09-01T04:29:19.762Z,21.00
2022-09-01T04:31:52.524Z,26.08
2022-09-01T04:34:22.822Z,13.23
2022-09-01T04:36:54.914Z,12.23
2022-09-01T04:39:24.447Z,9.88
2022-09-01T04:41:53.132Z,8.53
2022-09-01T04:44:22.577Z,9.98
2022-09-01T04:46:51.145Z,9.93
2022-09-01T04:49:22.796Z,12.30
2022-09-01T04:51:54.727Z,7.80
2022-09-01T04:54:25.303Z,10.27
2022-09-01T04:56:55.612Z,16.05
2022-09-01T04:59:27.722Z,11.25
2022-09-01T05:02:01.023Z,9.80
2022-09-01T05:04:35.839Z,10.23
2022-09-01T05:07:06.204Z,11.67
2022-09-01T05:09:38.805Z,11.45
2022-09-01T05:12:25.419Z,10.45
2022-09-01T05:14:54.455Z,9.95
2022-09-01T05:17:22.567Z,12.52
2022-09-01T05:19:53.027Z,8.70
2022-09-01T05:22:22.543Z,9.90
2022-09-01T05:25:14.212Z,9.63
2022-09-01T05:27:50.029Z,12.10
2022-09-01T05:30:21.134Z,8.85
2022-09-01T05:32:51.055Z,8.67
2022-09-01T05:35:19.317Z,9.73
2022-09-01T05:37:47.432Z,12.32
2022-09-01T05:40:16.691Z,16.17
2022-09-01T05:42:47.019Z,17.88
2022-09-01T05:45:15.735Z,23.03
2022-09-01T05:47:44.218Z,20.90
2022-09-01T05:50:14.699Z,22.13
2022-09-01T05:52:48.402Z,16.50
2022-09-01T05:55:17.092Z,14.57
2022-09-01T05:57:48.381Z,15.07
2022-09-01T06:00:18.682Z,11.73
2022-09-01T06:02:50.202Z,10.95
2022-09-01T06:05:21.735Z,9.13
2022-09-01T06:07:52.661Z,9.95
2022-09-01T06:10:21.541Z,8.80
2022-09-01T06:12:51.121Z,10.10
2022-09-01T06:15:25.346Z,11.40
2022-09-01T06:17:55.093Z,8.90
2022-09-01T06:20:23.421Z,8.52
2022-09-01T06:22:53.600Z,10.53
2022-09-01T06:25:22.370Z,10.98
2022-09-01T06:27:52.911Z,11.00
2022-09-01T06:30:26.798Z,11.18
2022-09-01T06:33:10.974Z,11.68
2022-09-01T06:35:43.024Z,16.40
2022-09-01T06:38:12.545Z,12.18
2022-09-01T06:40:51.188Z,9.52
2022-09-01T06:43:24.198Z,8.38
2022-09-01T06:45:55.153Z,7.82
2022-09-01T06:48:24.878Z,5.60
2022-09-01T06:51:21.041Z,9.55
2022-09-01T06:54:00.141Z,5.57
2022-09-01T06:56:37.111Z,7.63
2022-09-01T06:59:15.983Z,9.48
2022-09-01T07:01:49.972Z,5.90
2022-09-01T07:04:31.158Z,6.10
2022-09-01T07:10:21.278Z,7.38
2022-09-01T07:13:23.027Z,5.72
2022-09-01T07:18:57.987Z,6.72
2022-09-01T07:21:40.978Z,7.20
2022-09-01T07:24:13.538Z,6.15
2022-09-01T07:27:08.495Z,6.68
2022-09-01T07:29:41.577Z,6.30
2022-09-01T07:35:00.921Z,7.53
2022-09-01T07:43:32.825Z,6.53
2022-09-01T07:46:37.358Z,7.73
2022-09-01T07:52:02.305Z,8.10
2022-09-01T07:54:31.892Z,12.50
2022-09-01T07:57:00.044Z,7.30
2022-09-01T07:59:30.062Z,11.93
2022-09-01T08:02:07.136Z,11.65
2022-09-01T08:04:36.270Z,10.25
2022-09-01T08:07:06.357Z,12.57
2022-09-01T08:09:44.009Z,9.32
2022-09-01T08:12:15.308Z,10.87
2022-09-01T08:14:48.381Z,10.40
2022-09-01T08:17:18.106Z,10.00
2022-09-01T08:20:11.125Z,7.80
2022-09-01T08:23:03.861Z,8.82
2022-09-01T08:25:37.738Z,10.50
2022-09-01T08:28:06.637Z,16.07
2022-09-01T08:30:36.082Z,16.50
2022-09-01T08:33:12.460Z,16.80
2022-09-01T08:35:47.577Z,22.67
2022-09-01T08:38:17.312Z,21.05
2022-09-01T08:40:56.839Z,7.10
2022-09-01T08:43:58.383Z,8.55
2022-09-01T08:46:37.995Z,8.10
2022-09-01T08:49:25.843Z,10.07
2022-09-01T08:52:25.510Z,7.45
2022-09-01T08:54:59.100Z,11.87
2022-09-01T08:57:32.826Z,6.37
2022-09-01T09:00:23.735Z,8.45
2022-09-01T09:03:17.511Z,8.38
2022-09-01T09:05:57.083Z,12.60
2022-09-01T09:08:44.782Z,11.32
2022-09-01T09:11:36.667Z,12.13
2022-09-01T09:14:41.839Z,10.93
2022-09-01T09:17:11.529Z,9.60
2022-09-01T09:19:44.419Z,9.88
2022-09-01T09:22:16.545Z,11.55
2022-09-01T09:24:53.133Z,8.63
2022-09-01T09:27:30.192Z,11.13
2022-09-01T09:30:07.301Z,8.63
2022-09-01T09:33:54.317Z,6.95
2022-09-01T09:36:16.113Z,8.18
2022-09-01T09:38:44.234Z,11.97
2022-09-01T09:41:27.051Z,10.60
2022-09-01T09:44:24.842Z,10.80
2022-09-01T09:46:53.682Z,10.23
2022-09-01T09:49:36.135Z,13.20
2022-09-01T09:52:10.558Z,11.67
2022-09-01T09:54:58.928Z,14.32
2022-09-01T09:57:29.440Z,10.07
2022-09-01T10:00:03.870Z,8.63
2022-09-01T10:02:45.344Z,10.07
2022-09-01T10:05:35.130Z,7.73
2022-09-01T10:08:04.228Z,7.70
2022-09-01T10:10:44.627Z,8.35
2022-09-01T10:13:25.950Z,10.10
2022-09-01T10:15:58.691Z,7.10
2022-09-01T10:18:45.418Z,8.10
2022-09-01T10:21:18.337Z,10.90
2022-09-01T10:23:47.859Z,8.45
2022-09-01T10:26:26.253Z,10.40
2022-09-01T10:28:57.148Z,8.00
2022-09-01T10:31:29.555Z,9.47
2022-09-01T10:34:05.553Z,9.07
2022-09-01T10:36:37.798Z,14.88
2022-09-01T10:39:14.011Z,8.80
2022-09-01T10:41:59.552Z,11.80
2022-09-01T10:44:39.364Z,6.00
2022-09-01T10:47:30.458Z,4.80
2022-09-01T10:50:02.341Z,5.22
2022-09-01T10:52:41.613Z,6.00
2022-09-01T10:55:29.276Z,8.55
2022-09-01T11:01:24.875Z,6.93
2022-09-01T11:04:04.231Z,6.57
2022-09-01T11:07:12.890Z,8.38
2022-09-01T11:10:31.221Z,7.95
2022-09-01T11:13:35.584Z,4.70
2022-09-01T11:16:50.059Z,5.55
2022-09-01T11:19:44.164Z,5.68
2022-09-01T11:22:25.973Z,6.90
2022-09-01T11:25:41.720Z,5.97
2022-09-01T11:28:15.773Z,5.80
2022-09-01T11:31:07.466Z,6.00
2022-09-01T11:33:58.903Z,8.68
2022-09-01T11:36:49.087Z,4.90
2022-09-01T11:39:23.503Z,6.90
2022-09-01T11:42:09.851Z,6.60
2022-09-01T11:45:15.497Z,6.38
2022-09-01T11:48:08.308Z,5.75
2022-09-01T11:50:39.637Z,6.35
2022-09-01T11:53:22.405Z,6.85
2022-09-01T11:55:53.613Z,9.03
2022-09-01T11:58:32.227Z,6.80
2022-09-01T12:01:23.618Z,6.38
2022-09-01T12:03:53.885Z,6.50
2022-09-01T12:06:29.830Z,6.40
2022-09-01T12:09:00.818Z,6.83
2022-09-01T12:11:35.071Z,7.75
2022-09-01T12:14:07.653Z,7.63
2022-09-01T12:16:42.782Z,7.28
2022-09-01T12:19:25.302Z,7.25
2022-09-01T12:22:17.637Z,8.97
2022-09-01T12:24:49.313Z,9.52
2022-09-01T12:27:17.730Z,6.95
2022-09-01T12:29:46.775Z,6.85
2022-09-01T12:32:16.329Z,7.60
2022-09-01T12:34:59.809Z,9.03
2022-09-01T12:37:28.749Z,6.72
2022-09-01T12:40:00.267Z,7.43
2022-09-01T12:42:32.441Z,6.38
2022-09-01T12:45:11.360Z,10.05
2022-09-01T12:47:49.978Z,8.53
2022-09-01T12:50:18.418Z,8.23
2022-09-01T12:52:59.147Z,7.47
2022-09-01T12:58:26.190Z,6.90
2022-09-01T13:01:10.153Z,6.50
2022-09-01T13:04:11.222Z,6.85
2022-09-01T13:06:39.676Z,8.35
2022-09-01T13:09:08.069Z,7.40
2022-09-01T13:14:26.038Z,7.03
2022-09-01T13:16:54.155Z,10.13
2022-09-01T13:19:28.834Z,5.47
2022-09-01T13:21:59.514Z,7.93
2022-09-01T13:24:30.408Z,6.68
2022-09-01T13:29:49.168Z,6.03
2022-09-01T13:32:21.604Z,6.68
2022-09-01T13:34:52.658Z,6.65
2022-09-01T13:37:21.976Z,7.63
2022-09-01T13:39:50.744Z,7.93
2022-09-01T13:42:19.128Z,6.43
2022-09-01T13:44:49.679Z,8.00
2022-09-01T13:47:35.194Z,7.50
2022-09-01T13:50:07.069Z,9.77
2022-09-01T13:52:38.533Z,6.33
2022-09-01T13:55:08.722Z,5.75
2022-09-01T13:57:37.036Z,5.75
2022-09-01T14:00:12.073Z,6.30
2022-09-01T14:02:49.596Z,8.00
2022-09-01T14:05:21.384Z,7.80
2022-09-01T14:07:50.134Z,7.30
2022-09-01T14:10:19.593Z,7.60
2022-09-01T14:12:48.355Z,8.32
2022-09-01T14:15:23.722Z,5.20
2022-09-01T14:17:57.899Z,7.33
2022-09-01T14:20:30.532Z,7.57
2022-09-01T14:23:01.413Z,7.90
2022-09-01T14:25:29.764Z,6.63
2022-09-01T14:27:58.258Z,7.63
2022-09-01T14:30:31.709Z,8.43
2022-09-01T14:33:02.186Z,6.63
2022-09-01T14:35:34.342Z,6.82
2022-09-01T14:38:03.401Z,6.60
2022-09-01T14:40:31.417Z,7.47
2022-09-01T14:42:59.522Z,6.50
2022-09-01T14:45:31.544Z,7.47
2022-09-01T14:48:01.671Z,7.22
2022-09-01T14:50:32.829Z,6.57
2022-09-01T14:53:03.081Z,6.32
2022-09-01T14:55:32.658Z,7.13
2022-09-01T14:58:01.367Z,6.70
2022-09-01T15:00:30.862Z,7.72
2022-09-01T15:02:59.416Z,7.38
2022-09-01T15:05:27.627Z,7.18
2022-09-01T15:07:56.200Z,10.53
2022-09-01T15:10:26.684Z,8.27
2022-09-01T15:13:00.101Z,8.27
2022-09-01T15:15:29.539Z,8.98
2022-09-01T15:17:58.109Z,6.80
2022-09-01T15:20:45.402Z,10.20
2022-09-01T15:23:20.404Z,9.60
2022-09-01T15:25:52.484Z,6.88
2022-09-01T15:28:21.268Z,8.20
2022-09-01T15:30:50.542Z,9.32
2022-09-01T15:33:22.103Z,9.20
2022-09-01T15:35:50.245Z,6.53
2022-09-01T15:38:18.516Z,7.85
2022-09-01T15:40:57.732Z,9.05
2022-09-01T15:43:28.587Z,8.43
2022-09-01T15:45:58.740Z,9.00
2022-09-01T15:48:29.194Z,6.65
2022-09-01T15:51:18.009Z,6.22
2022-09-01T15:53:46.170Z,10.10
2022-09-01T15:56:14.292Z,7.35
2022-09-01T15:59:00.093Z,9.70
2022-09-01T16:01:31.273Z,11.00
2022-09-01T16:03:59.983Z,9.00
2022-09-01T16:06:28.857Z,8.50
2022-09-01T16:08:57.234Z,10.45
2022-09-01T16:11:28.577Z,9.47
2022-09-01T16:13:57.436Z,7.47
2022-09-01T16:16:25.341Z,7.53
2022-09-01T16:19:02.697Z,9.90
2022-09-01T16:21:39.396Z,9.60
2022-09-01T16:24:13.037Z,10.50
2022-09-01T16:26:44.876Z,7.60
2022-09-01T16:29:29.607Z,8.80
2022-09-01T16:31:57.953Z,9.70
2022-09-01T16:34:28.390Z,9.20
2022-09-01T16:37:25.612Z,8.73
2022-09-01T16:40:35.986Z,7.15
2022-09-01T16:43:33.132Z,8.35
2022-09-01T16:46:51.392Z,8.88
2022-09-01T16:49:54.171Z,9.20
2022-09-01T16:52:29.962Z,8.97
2022-09-01T16:55:29.691Z,11.32
2022-09-01T16:58:04.772Z,9.88
2022-09-01T17:00:58.348Z,7.05
2022-09-01T17:03:42.691Z,8.55
2022-09-01T17:06:15.512Z,8.00
2022-09-01T17:08:55.882Z,9.55
2022-09-01T17:11:35.168Z,7.22
2022-09-01T17:14:06.552Z,8.10
2022-09-01T17:16:42.780Z,7.43
2022-09-01T17:19:17.934Z,11.97
2022-09-01T17:21:54.485Z,9.48
2022-09-01T17:24:34.033Z,8.85
2022-09-01T17:27:26.889Z,9.40
2022-09-01T17:29:57.528Z,6.95
2022-09-01T17:32:56.292Z,10.77
2022-09-01T17:35:41.837Z,8.68
2022-09-01T17:38:28.974Z,10.32
2022-09-01T17:41:05.900Z,10.45
2022-09-01T17:43:58.352Z,11.25
2022-09-01T17:46:50.333Z,10.53
2022-09-01T17:49:29.268Z,16.10
2022-09-01T17:52:06.412Z,13.98
2022-09-01T17:54:46.573Z,16.30
2022-09-01T17:57:26.778Z,15.40
2022-09-01T18:00:48.421Z,14.13
2022-09-01T18:03:46.162Z,11.10
2022-09-01T18:07:02.636Z,13.68
2022-09-01T18:09:32.638Z,10.07
2022-09-01T18:12:10.469Z,9.40
2022-09-01T18:14:42.578Z,13.53
2022-09-01T18:17:33.272Z,8.98
2022-09-01T18:20:17.929Z,9.18
2022-09-01T18:25:39.399Z,9.70
2022-09-01T18:28:08.210Z,7.73
2022-09-01T18:30:56.066Z,9.13
2022-09-01T18:33:39.908Z,11.35
2022-09-01T18:36:26.265Z,9.90
2022-09-01T18:39:13.559Z,5.82
2022-09-01T18:42:08.773Z,7.55
2022-09-01T18:44:55.690Z,6.33
2022-09-01T18:47:55.887Z,10.47
2022-09-01T18:50:39.709Z,8.15
2022-09-01T18:53:29.318Z,7.78
2022-09-01T18:56:15.069Z,12.38
2022-09-01T18:59:09.606Z,11.35
2022-09-01T19:01:45.040Z,9.77
2022-09-01T19:04:38.163Z,7.57
2022-09-01T19:07:23.161Z,5.30
2022-09-01T19:10:10.268Z,6.53
2022-09-01T19:12:54.771Z,9.70
2022-09-01T19:15:30.464Z,8.83
2022-09-01T19:18:04.772Z,6.60
2022-09-01T19:20:56.745Z,7.18
2022-09-01T19:23:51.142Z,7.47
2022-09-01T19:26:26.291Z,9.98
2022-09-01T19:29:00.922Z,10.67
2022-09-01T19:31:37.091Z,12.00
2022-09-01T19:34:10.106Z,12.73
2022-09-01T19:36:53.578Z,7.68
2022-09-01T19:39:35.283Z,6.88
2022-09-01T19:42:34.686Z,9.97
2022-09-01T19:45:21.211Z,8.13
2022-09-01T19:48:10.484Z,10.02
2022-09-01T19:50:57.051Z,9.00
2022-09-01T19:53:36.950Z,9.63
2022-09-01T19:56:17.682Z,10.65
2022-09-01T19:59:00.742Z,11.13
2022-09-01T20:02:00.814Z,15.00
2022-09-01T20:04:34.839Z,12.80
2022-09-01T20:07:03.955Z,14.77
2022-09-01T20:09:54.198Z,10.85
2022-09-01T20:12:42.442Z,12.93
2022-09-01T20:15:36.993Z,11.88
2022-09-01T20:18:09.314Z,12.90
2022-09-01T20:20:46.550Z,9.38
2022-09-01T20:23:26.008Z,11.07
2022-09-01T20:26:03.357Z,11.50
2022-09-01T20:29:01.721Z,11.13
2022-09-01T20:31:46.275Z,11.77
2022-09-01T20:34:58.896Z,10.35
2022-09-01T20:37:46.873Z,12.02
2022-09-01T20:40:31.220Z,9.07
2022-09-01T20:43:24.335Z,12.60
2022-09-01T20:45:52.923Z,13.30
2022-09-01T20:48:25.565Z,12.70
2022-09-01T20:50:56.373Z,20.38
2022-09-01T20:53:45.653Z,10.38
2022-09-01T20:56:26.342Z,14.17
2022-09-01T20:59:25.669Z,14.40
2022-09-01T21:02:36.370Z,11.35
2022-09-01T21:05:44.089Z,10.05
2022-09-01T21:08:25.252Z,10.68
2022-09-01T21:10:59.408Z,10.60
2022-09-01T21:13:53.516Z,10.48
2022-09-01T21:16:49.407Z,12.93
2022-09-01T21:19:34.581Z,7.22
2022-09-01T21:22:11.744Z,12.02
2022-09-01T21:24:42.841Z,11.17
2022-09-01T21:27:37.208Z,12.18
2022-09-01T21:30:10.144Z,9.82
2022-09-01T21:32:39.065Z,11.20
2022-09-01T21:35:14.632Z,14.48
2022-09-01T21:37:42.841Z,10.13
2022-09-01T21:40:13.054Z,8.85
2022-09-01T21:42:47.940Z,12.40
2022-09-01T21:45:18.132Z,11.70
2022-09-01T21:47:48.089Z,7.30
2022-09-01T21:50:20.899Z,10.07
2022-09-01T21:52:49.881Z,13.40
2022-09-01T21:55:22.557Z,8.38
2022-09-01T21:57:52.731Z,10.73
2022-09-01T22:00:25.920Z,8.18
2022-09-01T22:02:54.625Z,12.33
2022-09-01T22:05:22.898Z,8.40
2022-09-01T22:07:51.055Z,9.80
2022-09-01T22:10:21.530Z,12.10
2022-09-01T22:12:50.530Z,8.85
2022-09-01T22:15:21.580Z,6.40
2022-09-01T22:17:50.391Z,11.63
2022-09-01T22:20:20.186Z,9.20
2022-09-01T22:22:48.601Z,9.73
2022-09-01T22:25:20.611Z,8.13
2022-09-01T22:27:49.739Z,9.23
2022-09-01T22:30:19.035Z,7.47
2022-09-01T22:32:48.308Z,9.17
2022-09-01T22:35:17.569Z,10.05
2022-09-01T22:37:46.821Z,10.38
2022-09-01T22:40:16.354Z,9.63
2022-09-01T22:42:44.800Z,7.72
2022-09-01T22:45:15.357Z,9.13
2022-09-01T22:47:43.507Z,9.80
2022-09-01T22:50:12.391Z,8.65
2022-09-01T22:52:40.984Z,7.55
2022-09-01T22:55:10.403Z,7.72
2022-09-01T22:57:39.223Z,10.50
2022-09-01T23:00:09.967Z,9.90
2022-09-01T23:02:38.426Z,8.55
2022-09-01T23:05:07.312Z,7.22
2022-09-01T23:07:39.706Z,8.80
2022-09-01T23:10:09.914Z,10.02
2022-09-01T23:12:38.706Z,7.27
2022-09-01T23:15:07.876Z,11.93
2022-09-01T23:17:40.126Z,10.38
2022-09-01T23:20:13.391Z,7.78
2022-09-01T23:22:43.649Z,10.95
2022-09-01T23:25:14.590Z,8.40
2022-09-01T23:27:43.226Z,7.00
2022-09-01T23:30:13.731Z,5.97
2022-09-01T23:32:41.893Z,8.68
2022-09-01T23:35:10.738Z,7.28
2022-09-01T23:37:39.191Z,6.57
2022-09-01T23:40:08.483Z,9.07
2022-09-01T23:42:36.701Z,6.90
2022-09-01T23:45:06.641Z,8.65
2022-09-01T23:47:35.990Z,7.53
2022-09-01T23:50:05.159Z,8.00
2022-09-01T23:52:33.376Z,9.55
2022-09-01T23:55:03.818Z,6.90
2022-09-01T23:57:32.521Z,8.33
